map of ONJ home
ONJ - Airport
Location
City:  Odate-Noshiro, Akita, Japan
Near (Alt.):Kita Akita
Name:Odate-Noshiro Airport
ICAO:RJSR
IATA:ONJ

Details
Type:Airport (Aerodrome, Airfield)
Latitude:40°11'31"N (40.191872)
Longitude:140°22'17"E (140.371431)
Datum:WGS 1984
Elevation:292 ft (89 m)
Variation:8.93°W (WMM2015v2 magnetic declination)
-0.06° annual change
Runways:1
Longest:6562 × 148 ft (2000 × 45 m), paved

Time
Time Zone:UTC+9
Local Time:

Weather
METAR:RJSR 041000Z 26015KT 3000 -SHSN FEW003 SCT010 BKN020 M03/M05 Q1016

Related Locations
Nearby:
Farthest:SJEN: 11554 mi / 18595 km
Santa Vitória do Palmar [Pista Plá e Silva], RS, BR

Find:

   beyond  
but within

Other Information
Maps:
NOTAMs:
Links:
Sources:

  
  • flag of Japan
  • flag of Akita
  

Sectional Chart

Flight Planning
at skyvector.com

Satellite Image

Google Maps Satellite view

 

Copyright © 2004-2019 Karl L. Swartz. All rights reserved.
The Great Circle Mapper name and logo are trademarks of the Great Circle Mapper.
All other trademarks mentioned herein belong to their respective owners.
Please see credits for attibutions and further copyright information.

  Follow gcmap on Facebook Follow gcmap on Twitter GCmap on LinkedIn

hCard Microformat

Geo Microformat